sensor_id;sensor_type;location;lat;lon;timestamp;pressure;altitude;pressure_sealevel;temperature;humidity
77086;BME280;66014;53.134;18.006;2024-02-14T00:00:22;101512.46;;;2.46;87.20
77086;BME280;66014;53.134;18.006;2024-02-14T00:03:11;101515.78;;;2.48;87.31
77086;BME280;66014;53.134;18.006;2024-02-14T00:05:38;101517.36;;;2.51;87.29
77086;BME280;66014;53.134;18.006;2024-02-14T00:08:06;101517.71;;;2.53;87.24
77086;BME280;66014;53.134;18.006;2024-02-14T00:10:36;101519.67;;;2.55;87.30
77086;BME280;66014;53.134;18.006;2024-02-14T00:13:03;101518.85;;;2.57;87.25
77086;BME280;66014;53.134;18.006;2024-02-14T00:15:31;101521.35;;;2.59;87.26
77086;BME280;66014;53.134;18.006;2024-02-14T00:18:01;101522.66;;;2.60;87.14
77086;BME280;66014;53.134;18.006;2024-02-14T00:20:29;101519.98;;;2.63;87.15
77086;BME280;66014;53.134;18.006;2024-02-14T00:22:56;101524.50;;;2.67;87.12
77086;BME280;66014;53.134;18.006;2024-02-14T00:25:26;101519.83;;;2.68;87.16
77086;BME280;66014;53.134;18.006;2024-02-14T00:28:02;101526.20;;;2.70;87.05
77086;BME280;66014;53.134;18.006;2024-02-14T00:30:58;101526.71;;;2.72;87.06
77086;BME280;66014;53.134;18.006;2024-02-14T00:33:50;101525.98;;;2.75;87.04
77086;BME280;66014;53.134;18.006;2024-02-14T00:36:17;101528.33;;;2.77;86.92
77086;BME280;66014;53.134;18.006;2024-02-14T00:38:44;101530.13;;;2.79;86.93
77086;BME280;66014;53.134;18.006;2024-02-14T00:41:11;101530.92;;;2.80;87.05
77086;BME280;66014;53.134;18.006;2024-02-14T00:43:38;101533.15;;;2.80;86.90
77086;BME280;66014;53.134;18.006;2024-02-14T00:46:05;101532.61;;;2.81;86.93
77086;BME280;66014;53.134;18.006;2024-02-14T00:48:45;101536.50;;;2.80;86.79
77086;BME280;66014;53.134;18.006;2024-02-14T00:51:11;101535.17;;;2.79;86.98
77086;BME280;66014;53.134;18.006;2024-02-14T00:53:38;101533.77;;;2.79;87.00
77086;BME280;66014;53.134;18.006;2024-02-14T00:56:06;101535.28;;;2.78;86.97
77086;BME280;66014;53.134;18.006;2024-02-14T00:58:33;101536.02;;;2.77;86.99
77086;BME280;66014;53.134;18.006;2024-02-14T01:01:00;101532.11;;;2.76;86.99
77086;BME280;66014;53.134;18.006;2024-02-14T01:03:26;101532.19;;;2.74;87.14
77086;BME280;66014;53.134;18.006;2024-02-14T01:05:53;101528.31;;;2.72;87.09
77086;BME280;66014;53.134;18.006;2024-02-14T01:08:19;101528.40;;;2.71;87.11
77086;BME280;66014;53.134;18.006;2024-02-14T01:10:47;101530.66;;;2.68;87.16
77086;BME280;66014;53.134;18.006;2024-02-14T01:13:16;101526.25;;;2.67;87.16
77086;BME280;66014;53.134;18.006;2024-02-14T01:15:43;101525.16;;;2.65;87.26
77086;BME280;66014;53.134;18.006;2024-02-14T01:18:12;101525.30;;;2.63;87.31
77086;BME280;66014;53.134;18.006;2024-02-14T01:20:38;101528.29;;;2.60;87.45
77086;BME280;66014;53.134;18.006;2024-02-14T01:23:05;101530.19;;;2.58;87.48
77086;BME280;66014;53.134;18.006;2024-02-14T01:25:34;101533.15;;;2.56;87.50
77086;BME280;66014;53.134;18.006;2024-02-14T01:28:00;101530.61;;;2.54;87.61
77086;BME280;66014;53.134;18.006;2024-02-14T01:30:27;101533.36;;;2.53;87.54
77086;BME280;66014;53.134;18.006;2024-02-14T01:32:53;101532.39;;;2.52;87.51
77086;BME280;66014;53.134;18.006;2024-02-14T01:35:20;101530.36;;;2.50;87.64
77086;BME280;66014;53.134;18.006;2024-02-14T01:37:47;101534.27;;;2.50;87.68
77086;BME280;66014;53.134;18.006;2024-02-14T01:40:14;101530.77;;;2.50;87.73
77086;BME280;66014;53.134;18.006;2024-02-14T01:42:41;101531.65;;;2.49;87.84
77086;BME280;66014;53.134;18.006;2024-02-14T01:45:08;101528.08;;;2.51;87.76
77086;BME280;66014;53.134;18.006;2024-02-14T01:47:35;101529.26;;;2.51;87.77
77086;BME280;66014;53.134;18.006;2024-02-14T01:50:04;101533.40;;;2.52;87.61
77086;BME280;66014;53.134;18.006;2024-02-14T01:52:31;101533.89;;;2.53;87.74
77086;BME280;66014;53.134;18.006;2024-02-14T01:55:14;101534.38;;;2.53;87.69
77086;BME280;66014;53.134;18.006;2024-02-14T01:57:41;101538.29;;;2.52;87.67
77086;BME280;66014;53.134;18.006;2024-02-14T02:00:08;101535.19;;;2.52;87.65
77086;BME280;66014;53.134;18.006;2024-02-14T02:02:35;101534.59;;;2.50;87.70
77086;BME280;66014;53.134;18.006;2024-02-14T02:05:13;101539.03;;;2.49;87.68
77086;BME280;66014;53.134;18.006;2024-02-14T02:07:40;101542.43;;;2.48;87.68
77086;BME280;66014;53.134;18.006;2024-02-14T02:10:11;101541.77;;;2.47;87.55
77086;BME280;66014;53.134;18.006;2024-02-14T02:12:37;101540.86;;;2.46;87.68
77086;BME280;66014;53.134;18.006;2024-02-14T02:15:07;101535.30;;;2.45;87.76
77086;BME280;66014;53.134;18.006;2024-02-14T02:17:39;101533.88;;;2.43;87.94
77086;BME280;66014;53.134;18.006;2024-02-14T02:20:06;101536.11;;;2.40;87.92
77086;BME280;66014;53.134;18.006;2024-02-14T02:22:37;101536.09;;;2.38;87.95
77086;BME280;66014;53.134;18.006;2024-02-14T02:25:04;101541.42;;;2.38;87.98
77086;BME280;66014;53.134;18.006;2024-02-14T02:27:34;101535.02;;;2.36;88.09
77086;BME280;66014;53.134;18.006;2024-02-14T02:30:07;101536.40;;;2.34;88.00
77086;BME280;66014;53.134;18.006;2024-02-14T02:32:57;101537.46;;;2.31;88.03
77086;BME280;66014;53.134;18.006;2024-02-14T02:35:24;101542.08;;;2.30;88.25
77086;BME280;66014;53.134;18.006;2024-02-14T02:37:59;101543.56;;;2.29;88.14
77086;BME280;66014;53.134;18.006;2024-02-14T02:40:26;101547.95;;;2.29;88.33
77086;BME280;66014;53.134;18.006;2024-02-14T02:42:56;101547.82;;;2.28;88.13
77086;BME280;66014;53.134;18.006;2024-02-14T02:45:22;101549.45;;;2.28;88.22
77086;BME280;66014;53.134;18.006;2024-02-14T02:47:49;101538.88;;;2.26;88.15
77086;BME280;66014;53.134;18.006;2024-02-14T02:50:19;101543.35;;;2.24;88.24
77086;BME280;66014;53.134;18.006;2024-02-14T02:52:48;101543.44;;;2.23;88.24
77086;BME280;66014;53.134;18.006;2024-02-14T02:55:15;101541.65;;;2.21;88.27
77086;BME280;66014;53.134;18.006;2024-02-14T02:57:44;101546.09;;;2.20;88.43
77086;BME280;66014;53.134;18.006;2024-02-14T03:00:12;101546.58;;;2.18;88.48
77086;BME280;66014;53.134;18.006;2024-02-14T03:02:39;101550.17;;;2.17;88.50
77086;BME280;66014;53.134;18.006;2024-02-14T03:05:12;101553.02;;;2.14;88.57
77086;BME280;66014;53.134;18.006;2024-02-14T03:07:45;101558.33;;;2.10;88.46
77086;BME280;66014;53.134;18.006;2024-02-14T03:10:11;101559.21;;;2.07;88.46
77086;BME280;66014;53.134;18.006;2024-02-14T03:12:48;101559.91;;;2.05;88.67
77086;BME280;66014;53.134;18.006;2024-02-14T03:15:15;101558.88;;;2.02;88.69
77086;BME280;66014;53.134;18.006;2024-02-14T03:17:42;101561.71;;;1.99;88.56
77086;BME280;66014;53.134;18.006;2024-02-14T03:20:12;101559.52;;;1.95;88.73
77086;BME280;66014;53.134;18.006;2024-02-14T03:22:41;101558.84;;;1.92;88.87
77086;BME280;66014;53.134;18.006;2024-02-14T03:25:16;101551.93;;;1.88;89.04
77086;BME280;66014;53.134;18.006;2024-02-14T03:27:43;101554.13;;;1.84;88.96
77086;BME280;66014;53.134;18.006;2024-02-14T03:30:20;101558.34;;;1.81;89.08
77086;BME280;66014;53.134;18.006;2024-02-14T03:32:51;101555.69;;;1.79;89.20
77086;BME280;66014;53.134;18.006;2024-02-14T03:35:22;101558.55;;;1.78;89.25
77086;BME280;66014;53.134;18.006;2024-02-14T03:37:49;101563.36;;;1.77;89.46
77086;BME280;66014;53.134;18.006;2024-02-14T03:40:19;101562.90;;;1.76;89.27
77086;BME280;66014;53.134;18.006;2024-02-14T03:42:48;101568.23;;;1.75;89.48
77086;BME280;66014;53.134;18.006;2024-02-14T03:45:15;101567.42;;;1.74;89.43
77086;BME280;66014;53.134;18.006;2024-02-14T03:47:41;101568.24;;;1.72;89.31
77086;BME280;66014;53.134;18.006;2024-02-14T03:50:08;101575.50;;;1.71;89.39
77086;BME280;66014;53.134;18.006;2024-02-14T03:52:35;101572.23;;;1.70;89.48
77086;BME280;66014;53.134;18.006;2024-02-14T03:55:02;101573.88;;;1.68;89.41
77086;BME280;66014;53.134;18.006;2024-02-14T03:57:29;101572.06;;;1.67;89.51
77086;BME280;66014;53.134;18.006;2024-02-14T03:59:58;101572.70;;;1.65;89.49
77086;BME280;66014;53.134;18.006;2024-02-14T04:02:25;101574.30;;;1.65;89.45
77086;BME280;66014;53.134;18.006;2024-02-14T04:04:54;101574.56;;;1.64;89.42
77086;BME280;66014;53.134;18.006;2024-02-14T04:07:21;101574.90;;;1.61;89.54
77086;BME280;66014;53.134;18.006;2024-02-14T04:09:49;101578.39;;;1.59;89.57
77086;BME280;66014;53.134;18.006;2024-02-14T04:12:15;101580.78;;;1.57;89.65
77086;BME280;66014;53.134;18.006;2024-02-14T04:14:42;101581.11;;;1.54;89.73
77086;BME280;66014;53.134;18.006;2024-02-14T04:17:09;101580.75;;;1.52;89.82
77086;BME280;66014;53.134;18.006;2024-02-14T04:19:37;101575.30;;;1.49;89.82
77086;BME280;66014;53.134;18.006;2024-02-14T04:22:04;101574.02;;;1.48;89.74
77086;BME280;66014;53.134;18.006;2024-02-14T04:24:35;101572.31;;;1.47;90.02
77086;BME280;66014;53.134;18.006;2024-02-14T04:27:01;101567.80;;;1.47;89.83
77086;BME280;66014;53.134;18.006;2024-02-14T04:29:30;101568.54;;;1.46;89.78
77086;BME280;66014;53.134;18.006;2024-02-14T04:31:59;101565.30;;;1.45;90.02
77086;BME280;66014;53.134;18.006;2024-02-14T04:34:26;101563.91;;;1.44;89.82
77086;BME280;66014;53.134;18.006;2024-02-14T04:36:54;101566.21;;;1.44;89.88
77086;BME280;66014;53.134;18.006;2024-02-14T04:39:21;101566.10;;;1.43;90.18
77086;BME280;66014;53.134;18.006;2024-02-14T04:41:48;101565.21;;;1.41;90.10
77086;BME280;66014;53.134;18.006;2024-02-14T04:44:16;101569.29;;;1.37;90.28
77086;BME280;66014;53.134;18.006;2024-02-14T04:46:43;101570.89;;;1.34;90.14
77086;BME280;66014;53.134;18.006;2024-02-14T04:49:11;101566.80;;;1.29;90.01
77086;BME280;66014;53.134;18.006;2024-02-14T04:51:37;101567.88;;;1.26;90.16
77086;BME280;66014;53.134;18.006;2024-02-14T04:54:04;101564.90;;;1.24;90.25
77086;BME280;66014;53.134;18.006;2024-02-14T04:56:33;101570.46;;;1.21;90.29
77086;BME280;66014;53.134;18.006;2024-02-14T04:58:59;101572.31;;;1.19;90.35
77086;BME280;66014;53.134;18.006;2024-02-14T05:01:26;101575.59;;;1.18;90.55
77086;BME280;66014;53.134;18.006;2024-02-14T05:03:52;101578.19;;;1.15;90.32
77086;BME280;66014;53.134;18.006;2024-02-14T05:06:19;101575.87;;;1.13;90.56
77086;BME280;66014;53.134;18.006;2024-02-14T05:08:46;101573.86;;;1.12;90.52
77086;BME280;66014;53.134;18.006;2024-02-14T05:11:13;101574.81;;;1.10;90.70
77086;BME280;66014;53.134;18.006;2024-02-14T05:13:40;101574.17;;;1.10;90.51
77086;BME280;66014;53.134;18.006;2024-02-14T05:16:07;101572.98;;;1.09;90.64
77086;BME280;66014;53.134;18.006;2024-02-14T05:18:37;101575.17;;;1.07;90.76
77086;BME280;66014;53.134;18.006;2024-02-14T05:21:06;101571.07;;;1.06;90.69
77086;BME280;66014;53.134;18.006;2024-02-14T05:23:33;101567.64;;;1.05;90.71
77086;BME280;66014;53.134;18.006;2024-02-14T05:26:04;101564.31;;;1.05;90.72
77086;BME280;66014;53.134;18.006;2024-02-14T05:28:32;101567.94;;;1.06;90.91
77086;BME280;66014;53.134;18.006;2024-02-14T05:30:59;101563.17;;;1.07;90.83
77086;BME280;66014;53.134;18.006;2024-02-14T05:33:26;101567.70;;;1.07;90.68
77086;BME280;66014;53.134;18.006;2024-02-14T05:35:53;101573.22;;;1.08;90.57
77086;BME280;66014;53.134;18.006;2024-02-14T05:38:20;101575.75;;;1.09;90.36
77086;BME280;66014;53.134;18.006;2024-02-14T05:40:48;101577.44;;;1.10;90.60
77086;BME280;66014;53.134;18.006;2024-02-14T05:43:16;101575.98;;;1.11;90.51
77086;BME280;66014;53.134;18.006;2024-02-14T05:45:44;101576.16;;;1.11;90.65
77086;BME280;66014;53.134;18.006;2024-02-14T05:48:11;101570.41;;;1.11;90.69
77086;BME280;66014;53.134;18.006;2024-02-14T05:50:37;101576.52;;;1.11;90.75
77086;BME280;66014;53.134;18.006;2024-02-14T05:53:04;101579.48;;;1.11;90.76
77086;BME280;66014;53.134;18.006;2024-02-14T05:55:30;101582.86;;;1.10;90.53
77086;BME280;66014;53.134;18.006;2024-02-14T05:57:57;101586.60;;;1.09;90.59
77086;BME280;66014;53.134;18.006;2024-02-14T06:00:25;101585.59;;;1.09;90.70
77086;BME280;66014;53.134;18.006;2024-02-14T06:02:51;101584.88;;;1.09;90.56
77086;BME280;66014;53.134;18.006;2024-02-14T06:05:18;101589.77;;;1.08;90.67
77086;BME280;66014;53.134;18.006;2024-02-14T06:07:45;101592.88;;;1.10;90.78
77086;BME280;66014;53.134;18.006;2024-02-14T06:10:12;101593.33;;;1.11;90.77
77086;BME280;66014;53.134;18.006;2024-02-14T06:12:40;101593.77;;;1.12;90.86
77086;BME280;66014;53.134;18.006;2024-02-14T06:15:07;101594.32;;;1.15;90.82
77086;BME280;66014;53.134;18.006;2024-02-14T06:17:34;101591.06;;;1.16;90.66
77086;BME280;66014;53.134;18.006;2024-02-14T06:20:01;101598.30;;;1.18;90.40
77086;BME280;66014;53.134;18.006;2024-02-14T06:22:33;101598.70;;;1.20;90.25
77086;BME280;66014;53.134;18.006;2024-02-14T06:25:00;101602.17;;;1.23;90.38
77086;BME280;66014;53.134;18.006;2024-02-14T06:27:28;101596.99;;;1.27;90.40
77086;BME280;66014;53.134;18.006;2024-02-14T06:29:54;101597.42;;;1.32;90.26
77086;BME280;66014;53.134;18.006;2024-02-14T06:32:24;101599.50;;;1.35;90.14
77086;BME280;66014;53.134;18.006;2024-02-14T06:34:50;101602.23;;;1.39;90.18
77086;BME280;66014;53.134;18.006;2024-02-14T06:37:17;101604.55;;;1.41;89.81
77086;BME280;66014;53.134;18.006;2024-02-14T06:39:49;101604.54;;;1.43;89.67
77086;BME280;66014;53.134;18.006;2024-02-14T06:42:17;101600.39;;;1.45;89.69
77086;BME280;66014;53.134;18.006;2024-02-14T06:44:57;101607.06;;;1.51;89.77
77086;BME280;66014;53.134;18.006;2024-02-14T06:47:24;101606.40;;;1.55;89.74
77086;BME280;66014;53.134;18.006;2024-02-14T06:49:56;101604.50;;;1.58;89.56
77086;BME280;66014;53.134;18.006;2024-02-14T06:52:22;101608.34;;;1.61;89.49
77086;BME280;66014;53.134;18.006;2024-02-14T06:54:49;101610.19;;;1.64;89.66
77086;BME280;66014;53.134;18.006;2024-02-14T06:57:16;101606.63;;;1.68;89.42
77086;BME280;66014;53.134;18.006;2024-02-14T06:59:44;101604.98;;;1.72;89.42
77086;BME280;66014;53.134;18.006;2024-02-14T07:02:11;101606.66;;;1.76;89.32
77086;BME280;66014;53.134;18.006;2024-02-14T07:04:38;101607.39;;;1.81;89.05
77086;BME280;66014;53.134;18.006;2024-02-14T07:07:05;101604.10;;;1.88;89.29
77086;BME280;66014;53.134;18.006;2024-02-14T07:09:32;101604.01;;;1.97;89.25
77086;BME280;66014;53.134;18.006;2024-02-14T07:12:02;101603.35;;;2.10;88.98
77086;BME280;66014;53.134;18.006;2024-02-14T07:14:29;101605.90;;;2.24;88.79
77086;BME280;66014;53.134;18.006;2024-02-14T07:16:59;101603.73;;;2.33;88.12
77086;BME280;66014;53.134;18.006;2024-02-14T07:19:25;101603.81;;;2.42;87.89
77086;BME280;66014;53.134;18.006;2024-02-14T07:21:52;101606.10;;;2.55;88.09
77086;BME280;66014;53.134;18.006;2024-02-14T07:24:19;101607.40;;;2.71;88.11
77086;BME280;66014;53.134;18.006;2024-02-14T07:26:46;101606.45;;;2.95;87.83
77086;BME280;66014;53.134;18.006;2024-02-14T07:29:13;101604.73;;;3.22;87.23
77086;BME280;66014;53.134;18.006;2024-02-14T07:31:39;101605.67;;;3.50;86.88
77086;BME280;66014;53.134;18.006;2024-02-14T07:34:06;101601.98;;;3.77;86.24
77086;BME280;66014;53.134;18.006;2024-02-14T07:36:32;101602.41;;;3.97;85.33
77086;BME280;66014;53.134;18.006;2024-02-14T07:39:01;101603.41;;;4.12;84.96
77086;BME280;66014;53.134;18.006;2024-02-14T07:41:28;101607.83;;;4.23;84.79
77086;BME280;66014;53.134;18.006;2024-02-14T07:43:57;101600.49;;;4.34;84.67
77086;BME280;66014;53.134;18.006;2024-02-14T07:46:26;101595.08;;;4.45;84.82
77086;BME280;66014;53.134;18.006;2024-02-14T07:48:56;101598.99;;;4.65;84.54
77086;BME280;66014;53.134;18.006;2024-02-14T07:51:28;101599.66;;;4.83;84.16
77086;BME280;66014;53.134;18.006;2024-02-14T07:53:56;101598.52;;;4.89;81.65
77086;BME280;66014;53.134;18.006;2024-02-14T07:56:25;101598.02;;;4.86;82.42
77086;BME280;66014;53.134;18.006;2024-02-14T07:58:51;101593.02;;;4.92;82.32
77086;BME280;66014;53.134;18.006;2024-02-14T08:01:20;101593.79;;;5.00;81.88
77086;BME280;66014;53.134;18.006;2024-02-14T08:03:47;101590.40;;;5.12;82.04
77086;BME280;66014;53.134;18.006;2024-02-14T08:06:14;101590.05;;;5.23;81.25
77086;BME280;66014;53.134;18.006;2024-02-14T08:08:42;101587.59;;;5.23;80.71
77086;BME280;66014;53.134;18.006;2024-02-14T08:11:18;101589.96;;;5.24;81.00
77086;BME280;66014;53.134;18.006;2024-02-14T08:13:45;101585.94;;;5.36;81.36
77086;BME280;66014;53.134;18.006;2024-02-14T08:16:12;101585.64;;;5.55;80.45
77086;BME280;66014;53.134;18.006;2024-02-14T08:18:39;101583.14;;;5.69;79.37
77086;BME280;66014;53.134;18.006;2024-02-14T08:21:06;101584.88;;;5.80;78.96
77086;BME280;66014;53.134;18.006;2024-02-14T08:23:33;101584.88;;;5.95;78.88
77086;BME280;66014;53.134;18.006;2024-02-14T08:26:01;101585.54;;;6.12;79.37
77086;BME280;66014;53.134;18.006;2024-02-14T08:28:28;101581.77;;;6.32;79.08
77086;BME280;66014;53.134;18.006;2024-02-14T08:30:58;101586.70;;;6.42;78.24
77086;BME280;66014;53.134;18.006;2024-02-14T08:33:24;101582.48;;;6.42;77.66
77086;BME280;66014;53.134;18.006;2024-02-14T08:36:10;101578.46;;;6.35;78.20
77086;BME280;66014;53.134;18.006;2024-02-14T08:38:56;101579.75;;;6.29;78.44
77086;BME280;66014;53.134;18.006;2024-02-14T08:41:23;101581.24;;;6.28;78.85
77086;BME280;66014;53.134;18.006;2024-02-14T08:43:51;101581.67;;;6.29;78.90
77086;BME280;66014;53.134;18.006;2024-02-14T08:46:19;101579.13;;;6.32;78.31
77086;BME280;66014;53.134;18.006;2024-02-14T08:48:46;101583.09;;;6.39;78.04
77086;BME280;66014;53.134;18.006;2024-02-14T08:51:13;101582.74;;;6.41;77.68
77086;BME280;66014;53.134;18.006;2024-02-14T08:53:40;101586.84;;;6.49;78.40
77086;BME280;66014;53.134;18.006;2024-02-14T08:56:12;101586.55;;;6.58;77.18
77086;BME280;66014;53.134;18.006;2024-02-14T08:58:39;101593.00;;;6.57;76.79
77086;BME280;66014;53.134;18.006;2024-02-14T09:01:06;101589.58;;;6.54;77.12
77086;BME280;66014;53.134;18.006;2024-02-14T09:03:36;101584.02;;;6.49;76.87
77086;BME280;66014;53.134;18.006;2024-02-14T09:06:03;101583.98;;;6.45;76.78
77086;BME280;66014;53.134;18.006;2024-02-14T09:08:31;101586.10;;;6.41;76.69
77086;BME280;66014;53.134;18.006;2024-02-14T09:10:57;101578.52;;;6.37;76.89
77086;BME280;66014;53.134;18.006;2024-02-14T09:13:26;101580.27;;;6.39;76.74
77086;BME280;66014;53.134;18.006;2024-02-14T09:15:53;101585.92;;;6.53;76.27
77086;BME280;66014;53.134;18.006;2024-02-14T09:18:20;101587.87;;;6.74;76.55
77086;BME280;66014;53.134;18.006;2024-02-14T09:20:47;101586.58;;;7.04;75.82
77086;BME280;66014;53.134;18.006;2024-02-14T09:23:17;101588.34;;;7.29;74.65
77086;BME280;66014;53.134;18.006;2024-02-14T09:25:46;101588.85;;;7.53;74.27
77086;BME280;66014;53.134;18.006;2024-02-14T09:28:15;101587.39;;;7.79;74.26
77086;BME280;66014;53.134;18.006;2024-02-14T09:30:44;101589.94;;;7.99;71.98
77086;BME280;66014;53.134;18.006;2024-02-14T09:33:13;101589.88;;;8.15;73.35
77086;BME280;66014;53.134;18.006;2024-02-14T09:35:43;101586.95;;;8.41;73.62
77086;BME280;66014;53.134;18.006;2024-02-14T09:38:14;101590.17;;;8.69;71.75
77086;BME280;66014;53.134;18.006;2024-02-14T09:40:41;101593.94;;;8.70;70.51
77086;BME280;66014;53.134;18.006;2024-02-14T09:43:31;101590.62;;;8.59;71.78
77086;BME280;66014;53.134;18.006;2024-02-14T09:46:04;101590.85;;;8.50;72.07
77086;BME280;66014;53.134;18.006;2024-02-14T09:48:34;101583.52;;;8.53;71.65
77086;BME280;66014;53.134;18.006;2024-02-14T09:51:02;101581.73;;;8.74;71.98
77086;BME280;66014;53.134;18.006;2024-02-14T09:53:29;101580.27;;;8.99;70.88
77086;BME280;66014;53.134;18.006;2024-02-14T09:55:57;101579.21;;;9.04;70.60
77086;BME280;66014;53.134;18.006;2024-02-14T09:58:25;101577.91;;;8.99;69.50
77086;BME280;66014;53.134;18.006;2024-02-14T10:00:51;101574.23;;;8.88;70.05
77086;BME280;66014;53.134;18.006;2024-02-14T10:03:19;101576.66;;;8.85;71.01
77086;BME280;66014;53.134;18.006;2024-02-14T10:05:46;101581.05;;;8.89;69.80
77086;BME280;66014;53.134;18.006;2024-02-14T10:08:14;101579.36;;;8.86;69.47
77086;BME280;66014;53.134;18.006;2024-02-14T10:10:40;101574.39;;;8.90;70.77
77086;BME280;66014;53.134;18.006;2024-02-14T10:13:08;101577.27;;;9.06;70.79
77086;BME280;66014;53.134;18.006;2024-02-14T10:15:35;101573.17;;;9.30;69.89
77086;BME280;66014;53.134;18.006;2024-02-14T10:18:04;101567.22;;;9.65;69.02
77086;BME280;66014;53.134;18.006;2024-02-14T10:20:31;101569.30;;;9.96;67.30
77086;BME280;66014;53.134;18.006;2024-02-14T10:23:01;101566.55;;;10.02;66.75
77086;BME280;66014;53.134;18.006;2024-02-14T10:25:34;101561.42;;;9.98;67.33
77086;BME280;66014;53.134;18.006;2024-02-14T10:28:05;101560.31;;;9.94;66.29
77086;BME280;66014;53.134;18.006;2024-02-14T10:30:37;101554.31;;;9.82;67.22
77086;BME280;66014;53.134;18.006;2024-02-14T10:33:08;101550.31;;;9.75;65.79
77086;BME280;66014;53.134;18.006;2024-02-14T10:35:35;101553.68;;;9.60;66.10
77086;BME280;66014;53.134;18.006;2024-02-14T10:38:05;101553.48;;;9.55;66.57
77086;BME280;66014;53.134;18.006;2024-02-14T10:40:32;101552.31;;;9.51;65.83
77086;BME280;66014;53.134;18.006;2024-02-14T10:43:00;101551.94;;;9.48;65.55
77086;BME280;66014;53.134;18.006;2024-02-14T10:45:27;101547.88;;;9.44;65.38
77086;BME280;66014;53.134;18.006;2024-02-14T10:47:55;101543.70;;;9.43;65.44
77086;BME280;66014;53.134;18.006;2024-02-14T10:50:25;101543.73;;;9.54;65.50
77086;BME280;66014;53.134;18.006;2024-02-14T10:52:57;101540.26;;;9.58;64.68
77086;BME280;66014;53.134;18.006;2024-02-14T10:55:29;101532.54;;;9.54;65.14
77086;BME280;66014;53.134;18.006;2024-02-14T10:58:00;101532.58;;;9.52;64.91
77086;BME280;66014;53.134;18.006;2024-02-14T11:00:28;101534.69;;;9.39;64.15
77086;BME280;66014;53.134;18.006;2024-02-14T11:02:58;101531.64;;;9.27;64.88
77086;BME280;66014;53.134;18.006;2024-02-14T11:05:27;101532.14;;;9.18;64.59
77086;BME280;66014;53.134;18.006;2024-02-14T11:07:53;101527.92;;;9.16;64.91
77086;BME280;66014;53.134;18.006;2024-02-14T11:10:23;101530.80;;;9.14;64.66
77086;BME280;66014;53.134;18.006;2024-02-14T11:12:54;101528.11;;;9.12;64.20
77086;BME280;66014;53.134;18.006;2024-02-14T11:15:22;101524.29;;;9.14;63.78
77086;BME280;66014;53.134;18.006;2024-02-14T11:17:49;101524.42;;;9.14;63.18
77086;BME280;66014;53.134;18.006;2024-02-14T11:20:31;101513.02;;;9.17;63.28
77086;BME280;66014;53.134;18.006;2024-02-14T11:23:04;101512.97;;;9.23;64.20
77086;BME280;66014;53.134;18.006;2024-02-14T11:25:33;101513.66;;;9.26;62.93
77086;BME280;66014;53.134;18.006;2024-02-14T11:28:23;101506.45;;;9.24;63.92
77086;BME280;66014;53.134;18.006;2024-02-14T11:30:52;101506.31;;;9.29;63.83
77086;BME280;66014;53.134;18.006;2024-02-14T11:33:24;101503.77;;;9.31;63.57
77086;BME280;66014;53.134;18.006;2024-02-14T11:35:52;101499.25;;;9.39;63.76
77086;BME280;66014;53.134;18.006;2024-02-14T11:38:20;101500.71;;;9.55;62.54
77086;BME280;66014;53.134;18.006;2024-02-14T11:40:48;101497.66;;;9.59;60.82
77086;BME280;66014;53.134;18.006;2024-02-14T11:43:17;101492.27;;;9.61;61.47
77086;BME280;66014;53.134;18.006;2024-02-14T11:45:44;101487.16;;;9.63;60.50
77086;BME280;66014;53.134;18.006;2024-02-14T11:48:19;101488.15;;;9.55;61.09
77086;BME280;66014;53.134;18.006;2024-02-14T11:50:53;101484.02;;;9.53;62.47
77086;BME280;66014;53.134;18.006;2024-02-14T11:53:20;101486.23;;;9.53;61.22
77086;BME280;66014;53.134;18.006;2024-02-14T11:55:48;101487.73;;;9.48;60.57
77086;BME280;66014;53.134;18.006;2024-02-14T11:58:18;101483.88;;;9.48;60.67
77086;BME280;66014;53.134;18.006;2024-02-14T12:00:46;101481.54;;;9.53;60.88
77086;BME280;66014;53.134;18.006;2024-02-14T12:03:16;101477.95;;;9.58;61.19
77086;BME280;66014;53.134;18.006;2024-02-14T12:05:44;101479.55;;;9.61;60.38
77086;BME280;66014;53.134;18.006;2024-02-14T12:08:14;101474.86;;;9.60;60.49
77086;BME280;66014;53.134;18.006;2024-02-14T12:10:46;101477.60;;;9.58;60.41
77086;BME280;66014;53.134;18.006;2024-02-14T12:13:17;101478.33;;;9.54;60.62
77086;BME280;66014;53.134;18.006;2024-02-14T12:15:45;101477.54;;;9.53;60.61
77086;BME280;66014;53.134;18.006;2024-02-14T12:18:13;101475.95;;;9.51;60.09
77086;BME280;66014;53.134;18.006;2024-02-14T12:20:42;101472.97;;;9.47;60.21
77086;BME280;66014;53.134;18.006;2024-02-14T12:23:18;101467.11;;;9.44;60.75
77086;BME280;66014;53.134;18.006;2024-02-14T12:25:45;101465.96;;;9.48;60.45
77086;BME280;66014;53.134;18.006;2024-02-14T12:28:16;101456.27;;;9.56;60.24
77086;BME280;66014;53.134;18.006;2024-02-14T12:30:50;101459.02;;;9.68;59.50
77086;BME280;66014;53.134;18.006;2024-02-14T12:33:24;101458.95;;;9.74;59.62
77086;BME280;66014;53.134;18.006;2024-02-14T12:35:53;101459.98;;;9.76;59.63
77086;BME280;66014;53.134;18.006;2024-02-14T12:38:25;101455.35;;;9.80;59.25
77086;BME280;66014;53.134;18.006;2024-02-14T12:40:55;101458.52;;;9.78;58.45
77086;BME280;66014;53.134;18.006;2024-02-14T12:43:22;101451.75;;;9.75;59.47
77086;BME280;66014;53.134;18.006;2024-02-14T12:45:50;101453.41;;;9.72;60.06
77086;BME280;66014;53.134;18.006;2024-02-14T12:48:23;101448.30;;;9.69;59.38
77086;BME280;66014;53.134;18.006;2024-02-14T12:51:15;101449.11;;;9.64;59.73
77086;BME280;66014;53.134;18.006;2024-02-14T12:53:42;101446.69;;;9.60;58.72
77086;BME280;66014;53.134;18.006;2024-02-14T12:56:09;101446.55;;;9.60;59.51
77086;BME280;66014;53.134;18.006;2024-02-14T12:58:36;101445.39;;;9.59;58.68